Philadelphia, Pennsylvania
Current Conditions -  °F | °C
As of 5:54 AM on Friday 21 Nov 2014 (Local Time) from KPHL Reporting Station
Clear Clear  
Wind Chill: -8°   Ceiling: Unl
Heat Index: -2°   Visibility: 10mi
Dew Point: -14°   Wind: 14mph
Humidity: 40%   Direction: 280°W
Pressure: 30.25"   Gusts: NA
Location:  39.95°N, 75.16°W
Report Text: KPHL 211054Z 28012KT 10SM CLR M02/M14 A3025 RMK AO2 SLP242 T10171139
Loading
Personal Weather Stations






























Interactive Weather Map New forecast layout! Learn more

10-Day Weather Forecast

Advertisements
Track Severe Weather on mobile